createdAt,value
2019-01-17T00:01:07.747Z,2.40
2019-01-17T00:06:23.771Z,7.53
2019-01-17T00:12:09.208Z,3.97
2019-01-17T00:23:11.598Z,3.00
2019-01-17T00:28:45.507Z,2.80
2019-01-17T00:34:10.440Z,2.33
2019-01-17T00:39:45.483Z,2.67
2019-01-17T00:45:08.859Z,6.50
2019-01-17T00:50:33.705Z,2.00
2019-01-17T00:56:07.302Z,1.20
2019-01-17T01:01:38.529Z,1.90
2019-01-17T01:07:12.341Z,1.40
2019-01-17T01:12:37.107Z,1.37
2019-01-17T01:18:01.818Z,1.57
2019-01-17T01:23:25.240Z,1.37
2019-01-17T01:28:50.312Z,1.47
2019-01-17T01:34:09.298Z,1.17
2019-01-17T01:39:49.788Z,1.10
2019-01-17T01:45:12.968Z,1.50
2019-01-17T01:50:40.939Z,1.13
2019-01-17T01:55:46.968Z,1.60
2019-01-17T02:00:52.943Z,1.13
2019-01-17T02:05:58.905Z,1.20
2019-01-17T02:11:05.220Z,0.80
2019-01-17T02:16:11.161Z,0.67
2019-01-17T02:21:17.800Z,1.30
2019-01-17T02:26:23.722Z,2.80
2019-01-17T02:31:29.902Z,1.40
2019-01-17T02:36:36.311Z,1.03
2019-01-17T02:41:42.246Z,0.97
2019-01-17T02:46:48.227Z,1.57
2019-01-17T02:51:54.474Z,1.00
2019-01-17T02:57:00.786Z,1.30
2019-01-17T03:02:06.772Z,0.93
2019-01-17T03:07:12.743Z,5.77
2019-01-17T03:12:18.725Z,2.40
2019-01-17T03:17:24.974Z,1.80
2019-01-17T03:22:30.958Z,1.40
2019-01-17T03:27:37.037Z,1.70
2019-01-17T03:32:43.117Z,1.90
2019-01-17T03:37:49.330Z,1.77
2019-01-17T03:42:55.187Z,1.63
2019-01-17T03:48:01.683Z,1.40
2019-01-17T03:53:07.866Z,1.50
2019-01-17T03:58:13.934Z,1.83
2019-01-17T04:03:20.225Z,1.60
2019-01-17T04:08:26.280Z,1.77
2019-01-17T04:13:32.481Z,1.80
2019-01-17T04:18:38.514Z,2.07
2019-01-17T04:23:44.733Z,1.57
2019-01-17T04:28:50.792Z,1.50
2019-01-17T04:33:56.845Z,3.53
2019-01-17T04:39:02.714Z,3.63
2019-01-17T04:44:08.704Z,4.00
2019-01-17T04:49:14.778Z,3.30
2019-01-17T04:54:20.748Z,3.90
2019-01-17T04:59:26.721Z,2.23
2019-01-17T05:04:32.377Z,2.00
2019-01-17T05:09:38.242Z,1.30
2019-01-17T05:14:44.324Z,0.60
2019-01-17T05:19:50.325Z,0.50
2019-01-17T05:24:56.277Z,0.97
2019-01-17T05:30:02.821Z,0.70
2019-01-17T05:35:09.439Z,1.00
2019-01-17T05:40:17.658Z,1.33
2019-01-17T05:45:24.324Z,1.57
2019-01-17T05:50:30.327Z,1.30
2019-01-17T05:55:36.421Z,1.40
2019-01-17T06:00:42.359Z,0.83
2019-01-17T06:05:48.570Z,1.27
2019-01-17T06:10:54.785Z,1.33
2019-01-17T06:16:01.080Z,1.37
2019-01-17T06:21:07.311Z,1.73
2019-01-17T06:26:13.461Z,1.30
2019-01-17T06:31:19.487Z,2.63
2019-01-17T06:36:25.534Z,3.00
2019-01-17T06:41:31.632Z,3.67
2019-01-17T06:46:37.813Z,2.50
2019-01-17T06:51:44.020Z,2.40
2019-01-17T06:56:50.010Z,3.03
2019-01-17T07:01:56.196Z,4.50
2019-01-17T07:07:02.563Z,12.13
2019-01-17T07:12:08.564Z,5.27
2019-01-17T07:17:14.636Z,2.27
2019-01-17T07:22:20.546Z,1.83
2019-01-17T07:27:26.881Z,1.87
2019-01-17T07:32:32.891Z,2.00
2019-01-17T07:37:39.008Z,2.20
2019-01-17T07:42:45.223Z,1.90
2019-01-17T07:47:51.511Z,2.03
2019-01-17T07:52:57.911Z,2.13
2019-01-17T07:58:03.947Z,42.97
2019-01-17T08:03:10.532Z,15.07
2019-01-17T08:08:16.719Z,13.23
2019-01-17T08:13:22.651Z,12.43
2019-01-17T08:18:29.129Z,12.43
2019-01-17T08:23:35.006Z,26.80
2019-01-17T08:40:20.340Z,6.85
2019-01-17T08:47:04.794Z,19.70
2019-01-17T08:52:10.870Z,14.93
2019-01-17T08:57:17.413Z,22.02
2019-01-17T09:02:23.490Z,29.32
2019-01-17T09:07:29.408Z,28.45
2019-01-17T09:12:35.371Z,37.40
2019-01-17T09:17:41.352Z,18.10
2019-01-17T09:22:47.623Z,11.10
2019-01-17T09:27:53.617Z,2.85
2019-01-17T09:32:59.590Z,3.17
2019-01-17T09:38:05.912Z,2.60
2019-01-17T09:43:11.944Z,1.75
2019-01-17T09:48:18.088Z,1.98
2019-01-17T09:53:24.283Z,2.05
2019-01-17T09:58:30.356Z,2.10
2019-01-17T10:03:36.478Z,2.52
2019-01-17T10:08:42.629Z,2.10
2019-01-17T10:13:48.692Z,1.85
2019-01-17T10:19:26.625Z,1.40
2019-01-17T10:25:04.389Z,1.80
2019-01-17T10:31:02.347Z,2.22
2019-01-17T10:36:43.979Z,2.02
2019-01-17T10:42:39.619Z,1.82
2019-01-17T10:48:16.581Z,1.40
2019-01-17T10:54:03.292Z,1.57
2019-01-17T10:59:45.557Z,1.62
2019-01-17T11:05:23.086Z,1.50
2019-01-17T11:10:50.327Z,1.77
2019-01-17T11:16:36.056Z,1.50
2019-01-17T11:22:16.938Z,1.70
2019-01-17T11:28:18.931Z,1.37
2019-01-17T11:34:07.168Z,1.72
2019-01-17T11:39:46.174Z,2.20
2019-01-17T11:45:07.471Z,2.10
2019-01-17T11:51:03.858Z,1.30
2019-01-17T11:57:05.588Z,1.12
2019-01-17T12:02:51.213Z,1.10
2019-01-17T12:07:57.343Z,1.22
2019-01-17T12:13:03.404Z,1.02
2019-01-17T12:18:09.290Z,1.30
2019-01-17T12:23:15.284Z,0.98
2019-01-17T12:28:21.610Z,0.98
2019-01-17T12:33:27.551Z,1.12
2019-01-17T12:38:33.607Z,1.32
2019-01-17T12:43:39.906Z,1.17
2019-01-17T12:48:45.997Z,0.80
2019-01-17T12:53:52.172Z,1.17
2019-01-17T12:58:58.055Z,1.15
2019-01-17T13:04:04.704Z,1.05
2019-01-17T13:09:10.862Z,0.93
2019-01-17T13:14:17.278Z,1.20
2019-01-17T13:19:23.550Z,1.25
2019-01-17T13:24:29.493Z,0.98
2019-01-17T13:29:35.372Z,1.00
2019-01-17T13:34:41.135Z,0.80
2019-01-17T13:39:47.143Z,1.15
2019-01-17T13:44:53.136Z,1.10
2019-01-17T13:49:59.213Z,1.75
2019-01-17T13:55:05.802Z,0.90
2019-01-17T14:00:15.675Z,0.60
2019-01-17T14:05:22.195Z,0.60
2019-01-17T14:10:28.265Z,0.45
2019-01-17T14:15:34.350Z,0.60
2019-01-17T14:20:40.125Z,0.50
2019-01-17T14:25:46.781Z,0.80
2019-01-17T14:30:52.733Z,1.10
2019-01-17T14:35:59.053Z,0.98
2019-01-17T14:41:05.036Z,0.70
2019-01-17T14:46:11.156Z,0.60
2019-01-17T14:51:17.592Z,0.60
2019-01-17T14:56:24.076Z,0.60
2019-01-17T15:01:30.309Z,0.68
2019-01-17T15:06:36.588Z,0.60
2019-01-17T15:11:42.799Z,0.57
2019-01-17T15:16:49.915Z,0.40
2019-01-17T15:21:56.309Z,0.60
2019-01-17T15:27:02.584Z,0.60
2019-01-17T15:32:09.881Z,0.80
2019-01-17T15:37:16.860Z,0.70
2019-01-17T15:42:23.244Z,0.88
2019-01-17T15:47:29.337Z,0.82
2019-01-17T15:52:35.336Z,0.80
2019-01-17T15:57:41.299Z,1.17
2019-01-17T16:02:47.822Z,1.20
2019-01-17T16:07:53.744Z,1.20
2019-01-17T16:13:00.093Z,1.30
2019-01-17T16:18:06.353Z,1.80
2019-01-17T16:23:12.680Z,1.60
2019-01-17T16:28:18.926Z,1.60
2019-01-17T16:33:25.040Z,1.20
2019-01-17T16:38:30.950Z,1.25
2019-01-17T16:43:37.367Z,1.95
2019-01-17T16:48:43.297Z,1.95
2019-01-17T16:53:49.274Z,2.75
2019-01-17T16:58:55.336Z,5.00
2019-01-17T17:04:01.398Z,25.32
2019-01-17T17:09:09.478Z,37.13
2019-01-17T17:14:15.925Z,32.95
2019-01-17T17:19:22.043Z,25.17
2019-01-17T17:24:28.081Z,30.10
2019-01-17T17:29:34.269Z,29.42
2019-01-17T17:34:40.557Z,12.20
2019-01-17T17:39:46.625Z,7.03
2019-01-17T17:44:52.547Z,4.97
2019-01-17T17:49:59.163Z,4.35
2019-01-17T17:55:05.995Z,6.25
2019-01-17T18:00:23.130Z,9.85
2019-01-17T18:05:29.190Z,10.13
2019-01-17T18:10:35.266Z,11.35
2019-01-17T18:15:41.726Z,12.40
2019-01-17T18:20:47.571Z,12.37
2019-01-17T18:25:53.553Z,16.60
2019-01-17T18:30:59.777Z,18.77
2019-01-17T18:36:06.354Z,22.25
2019-01-17T18:41:12.608Z,22.27
2019-01-17T18:46:19.661Z,29.80
2019-01-17T18:51:26.307Z,30.85
2019-01-17T18:56:32.791Z,21.17
2019-01-17T19:01:39.150Z,29.50
2019-01-17T19:06:45.241Z,50.25
2019-01-17T19:11:51.203Z,47.70
2019-01-17T19:16:57.481Z,44.38
2019-01-17T19:22:03.738Z,68.92
2019-01-17T19:27:09.838Z,65.80
2019-01-17T19:32:15.807Z,82.95
2019-01-17T19:37:21.889Z,69.85
2019-01-17T19:42:27.878Z,78.05
2019-01-17T19:47:35.000Z,58.20
2019-01-17T19:52:41.329Z,82.95
2019-01-17T19:57:47.319Z,84.52
2019-01-17T20:02:53.609Z,59.40
2019-01-17T20:08:01.130Z,53.10
2019-01-17T20:13:08.141Z,50.03
2019-01-17T20:18:14.167Z,48.10
2019-01-17T20:23:20.258Z,46.42
2019-01-17T20:28:26.251Z,44.40
2019-01-17T20:33:32.085Z,43.52
2019-01-17T20:38:38.259Z,54.05
2019-01-17T20:43:44.462Z,48.95
2019-01-17T20:48:50.435Z,43.35
2019-01-17T20:53:56.540Z,46.35
2019-01-17T20:59:02.573Z,50.75
2019-01-17T21:04:09.373Z,47.60
2019-01-17T21:09:15.674Z,40.52
2019-01-17T21:14:22.085Z,43.20
2019-01-17T21:19:28.431Z,42.30
2019-01-17T21:24:34.275Z,40.88
2019-01-17T21:29:40.262Z,37.90
2019-01-17T21:34:46.520Z,41.28
2019-01-17T21:39:52.870Z,49.25
2019-01-17T21:44:59.004Z,49.23
2019-01-17T21:50:06.357Z,43.02
2019-01-17T21:55:12.561Z,38.75
2019-01-17T22:00:20.891Z,38.10
2019-01-17T22:05:27.028Z,44.13
2019-01-17T22:10:32.964Z,38.78
2019-01-17T22:15:39.583Z,28.12
2019-01-17T22:20:45.849Z,22.75
2019-01-17T22:25:51.816Z,23.27
2019-01-17T22:30:57.788Z,29.10
2019-01-17T22:36:03.738Z,20.57
2019-01-17T22:41:10.302Z,24.63
2019-01-17T22:46:16.704Z,24.05
2019-01-17T22:51:22.704Z,23.33
2019-01-17T22:56:28.869Z,29.23
2019-01-17T23:01:35.256Z,27.87
2019-01-17T23:06:41.261Z,24.17
2019-01-17T23:11:47.216Z,20.25
2019-01-17T23:16:53.118Z,18.73
2019-01-17T23:21:59.108Z,20.65
2019-01-17T23:27:05.360Z,20.48
2019-01-17T23:32:11.492Z,27.37
2019-01-17T23:37:17.933Z,23.17
2019-01-17T23:42:23.857Z,33.63
2019-01-17T23:47:29.959Z,24.33
2019-01-17T23:52:36.005Z,19.67
2019-01-17T23:57:42.398Z,20.27
